Ora Direzione Vento Velocita' Vento Media Vento Raffica Max. Temperatura Wind Chill Pioggia Pressione
18:10:16.0256 °(WSW)0.0 Kts0.0 Kts8.7 Kts14.2 °C14.2 °C0.3 mm1020.0 Hpa
17:49:34.0256 °(WSW)0.0 Kts0.0 Kts8.7 Kts14.8 °C14.8 °C0.3 mm1020.0 Hpa
17:29:23.0255 °(WSW)1.9 Kts1.8 Kts8.7 Kts15.2 °C15.2 °C0.3 mm1019.0 Hpa
17:09:28.0255 °(WSW)0.7 Kts0.8 Kts8.7 Kts15.7 °C15.7 °C0.3 mm1019.0 Hpa
16:49:01.0255 °(WSW)1.5 Kts1.3 Kts8.7 Kts15.7 °C15.7 °C0.3 mm1020.0 Hpa
16:28:19.0255 °(WSW)1.8 Kts2.1 Kts8.7 Kts15.5 °C15.5 °C0.3 mm1019.0 Hpa
16:08:05.0255 °(WSW)1.8 Kts1.8 Kts8.7 Kts15.6 °C15.6 °C0.3 mm1020.0 Hpa
15:49:48.0255 °(WSW)2.4 Kts2.4 Kts8.7 Kts15.5 °C15.5 °C0.3 mm1020.0 Hpa
15:29:40.0256 °(WSW)2.3 Kts2.1 Kts8.7 Kts15.7 °C15.7 °C0.3 mm1020.0 Hpa
15:09:28.0256 °(WSW)3.0 Kts2.6 Kts8.7 Kts15.0 °C15.0 °C0.3 mm1020.0 Hpa
14:48:59.0251 °(WSW)3.6 Kts3.4 Kts8.7 Kts14.8 °C14.8 °C0.3 mm1020.0 Hpa
14:28:34.0229 °(SW)4.2 Kts4.2 Kts8.7 Kts15.0 °C15.0 °C0.3 mm1020.0 Hpa
14:08:19.0229 °(SW)5.1 Kts4.7 Kts8.7 Kts14.7 °C14.5 °C0.3 mm1021.0 Hpa
13:48:02.0239 °(WSW)6.8 Kts6.0 Kts8.7 Kts14.3 °C13.9 °C0.3 mm1021.0 Hpa
13:29:57.0212 °(SSW)6.9 Kts7.1 Kts8.4 Kts14.4 °C13.8 °C0.3 mm1021.0 Hpa
13:09:32.0219 °(SW)5.2 Kts4.2 Kts7.1 Kts14.3 °C14.1 °C0.3 mm1021.0 Hpa
12:49:16.0221 °(SW)5.2 Kts3.9 Kts7.1 Kts14.4 °C14.4 °C0.3 mm1021.0 Hpa
12:28:48.0214 °(SW)4.8 Kts5.8 Kts7.1 Kts14.7 °C14.5 °C0.3 mm1021.0 Hpa
12:08:21.0198 °(SSW)6.4 Kts6.6 Kts7.1 Kts14.9 °C14.6 °C0.3 mm1022.0 Hpa
11:49:34.0201 °(SSW)4.3 Kts4.5 Kts7.1 Kts15.1 °C15.1 °C0.3 mm1022.0 Hpa